Time;durP1;ratioP1;P1;durP2;ratioP2;P2;SDS_P1;SDS_P2;PMS_P1;PMS_P2;Temp;Humidity;BMP_temperature;BMP_pressure;BME280_temperature;BME280_humidity;BME280_pressure;Samples;Min_cycle;Max_cycle;Signal;HPM_P1;HPM_P2
2023/04/30 00:00:12;;;;;;;132.77;126.93;;;4.40;99.90;;;;;;5081068;28;20039;-65
2023/04/30 00:02:38;;;;;;;141.63;135.30;;;4.40;99.90;;;;;;5096695;28;20596;-65
2023/04/30 00:05:04;;;;;;;133.63;127.68;;;4.30;99.90;;;;;;5079029;28;20525;-65
2023/04/30 00:07:30;;;;;;;143.68;137.20;;;4.30;99.90;;;;;;5081626;28;20047;-65
2023/04/30 00:09:56;;;;;;;147.15;140.85;;;4.30;99.90;;;;;;5078635;28;20130;-65
2023/04/30 00:12:22;;;;;;;149.20;142.68;;;4.20;99.90;;;;;;5077722;28;20122;-65
2023/04/30 00:14:48;;;;;;;152.13;145.35;;;4.20;99.90;;;;;;5070665;28;20448;-65
2023/04/30 00:17:13;;;;;;;154.77;147.75;;;4.20;99.90;;;;;;5076052;28;20043;-65
2023/04/30 00:19:39;;;;;;;151.48;144.35;;;4.20;99.90;;;;;;5062424;28;20118;-65
2023/04/30 00:22:05;;;;;;;157.77;150.73;;;4.20;99.90;;;;;;5081362;28;20059;-66
2023/04/30 00:24:30;;;;;;;143.80;137.07;;;4.20;99.90;;;;;;5076942;28;20658;-65
2023/04/30 00:26:56;;;;;;;148.10;141.73;;;4.20;99.90;;;;;;5079660;28;20510;-65
2023/04/30 00:29:22;;;;;;;144.65;137.93;;;4.20;99.90;;;;;;5082365;28;20070;-65
2023/04/30 00:31:47;;;;;;;142.00;134.77;;;4.10;99.90;;;;;;5077734;28;20051;-65
2023/04/30 00:34:13;;;;;;;140.48;133.98;;;4.10;99.90;;;;;;5079237;28;20558;-65
2023/04/30 00:36:39;;;;;;;143.10;136.90;;;4.00;99.90;;;;;;5061813;28;20040;-65
2023/04/30 00:39:05;;;;;;;143.70;137.38;;;4.00;99.90;;;;;;5077630;28;20153;-65
2023/04/30 00:41:32;;;;;;;143.13;136.20;;;4.00;99.90;;;;;;5095759;28;20123;-65
2023/04/30 00:43:57;;;;;;;146.30;139.93;;;4.00;99.90;;;;;;5068619;28;20036;-65
2023/04/30 00:46:23;;;;;;;145.60;139.00;;;4.00;99.90;;;;;;5080465;28;20055;-65
2023/04/30 00:48:49;;;;;;;140.70;134.35;;;4.00;99.90;;;;;;5078353;28;20044;-65
2023/04/30 00:51:15;;;;;;;139.57;133.30;;;4.00;99.90;;;;;;5076810;28;20483;-65
2023/04/30 00:53:40;;;;;;;136.75;130.25;;;4.10;99.90;;;;;;5079954;28;20055;-65
2023/04/30 00:56:09;;;;;;;137.55;131.68;;;4.00;99.90;;;;;;5085441;28;20043;-65
2023/04/30 00:58:35;;;;;;;136.52;130.45;;;4.00;99.90;;;;;;5093162;28;20047;-65
2023/04/30 01:01:02;;;;;;;136.35;130.18;;;4.00;99.90;;;;;;5081475;28;20032;-65
2023/04/30 01:03:28;;;;;;;138.77;132.60;;;3.90;99.90;;;;;;5081750;28;20054;-65
2023/04/30 01:05:54;;;;;;;128.60;123.10;;;3.90;99.90;;;;;;5080287;28;20032;-65
2023/04/30 01:08:20;;;;;;;133.98;127.85;;;3.90;99.90;;;;;;5082155;28;20044;-65
2023/04/30 01:11:09;;;;;;;126.80;121.13;;;3.80;99.90;;;;;;5083201;28;20403;-65
2023/04/30 01:13:44;;;;;;;126.63;121.00;;;3.80;99.90;;;;;;5081410;28;20142;-65
2023/04/30 01:16:21;;;;;;;126.80;121.30;;;3.90;99.90;;;;;;5082864;27;20066;-65
2023/04/30 01:19:27;;;;;;;125.55;120.00;;;3.90;99.90;;;;;;5081586;28;20093;-65
2023/04/30 01:21:55;;;;;;;126.63;121.00;;;3.80;99.90;;;;;;5065044;28;20047;-65
2023/04/30 01:24:41;;;;;;;130.75;125.05;;;3.80;99.90;;;;;;5089928;28;20082;-65
2023/04/30 01:27:28;;;;;;;131.35;125.40;;;3.70;99.90;;;;;;5088207;28;20055;-66
2023/04/30 01:29:55;;;;;;;129.85;124.38;;;3.70;99.90;;;;;;5084127;28;20048;-65
2023/04/30 01:32:21;;;;;;;129.20;123.55;;;3.60;99.90;;;;;;5085828;28;20043;-65
2023/04/30 01:34:47;;;;;;;126.15;120.57;;;3.70;99.90;;;;;;5081167;28;20047;-65
2023/04/30 01:37:52;;;;;;;122.57;117.18;;;3.70;99.90;;;;;;5083143;28;20039;-65
2023/04/30 01:40:34;;;;;;;125.47;119.97;;;3.80;99.90;;;;;;5082902;28;20039;-65
2023/04/30 01:43:10;;;;;;;125.18;119.13;;;3.90;99.90;;;;;;5081053;28;20070;-66
2023/04/30 01:45:55;;;;;;;124.78;119.38;;;3.90;99.90;;;;;;5078540;28;20044;-65
2023/04/30 01:48:44;;;;;;;124.25;118.85;;;3.90;99.90;;;;;;5075569;28;20066;-65
2023/04/30 01:51:19;;;;;;;123.93;118.70;;;3.90;99.90;;;;;;5098199;28;20051;-65
2023/04/30 01:53:46;;;;;;;125.53;119.90;;;3.90;99.90;;;;;;5081693;28;20072;-65
2023/04/30 01:56:22;;;;;;;127.30;121.43;;;3.90;99.90;;;;;;5079734;28;20496;-65
2023/04/30 01:58:48;;;;;;;125.50;120.00;;;3.90;99.90;;;;;;5081594;27;20040;-65
2023/04/30 02:01:27;;;;;;;128.07;122.68;;;4.00;99.90;;;;;;5079056;28;20483;-65
2023/04/30 02:03:53;;;;;;;125.45;119.70;;;4.10;99.90;;;;;;5080900;28;20039;-65
2023/04/30 02:06:19;;;;;;;124.43;119.05;;;4.10;99.90;;;;;;5068837;28;20051;-65
2023/04/30 02:08:44;;;;;;;125.10;119.60;;;4.20;99.90;;;;;;5075194;28;20035;-65
2023/04/30 02:11:10;;;;;;;129.00;123.10;;;4.30;99.90;;;;;;5079585;28;20040;-66
2023/04/30 02:13:36;;;;;;;131.43;125.63;;;4.30;99.90;;;;;;5098907;28;20602;-65
2023/04/30 02:16:01;;;;;;;128.05;122.43;;;4.40;99.90;;;;;;5086409;28;20078;-65
2023/04/30 02:18:27;;;;;;;128.88;123.28;;;4.40;99.90;;;;;;5064440;28;20100;-66
2023/04/30 02:20:52;;;;;;;130.00;124.53;;;4.50;99.90;;;;;;5095228;28;20032;-65
2023/04/30 02:23:18;;;;;;;125.53;120.07;;;4.60;99.90;;;;;;5082530;28;20667;-65
2023/04/30 02:25:43;;;;;;;130.50;124.45;;;4.60;99.90;;;;;;5100084;27;20048;-65
2023/04/30 02:28:09;;;;;;;131.48;125.75;;;4.60;99.90;;;;;;5076435;28;20043;-65
2023/04/30 02:30:35;;;;;;;128.00;122.40;;;4.60;99.90;;;;;;5100538;28;20051;-65
2023/04/30 02:33:02;;;;;;;130.52;124.47;;;4.70;99.90;;;;;;5084733;28;20503;-65
2023/04/30 02:35:27;;;;;;;133.93;127.63;;;4.70;99.90;;;;;;5099252;27;20040;-65
2023/04/30 02:37:53;;;;;;;131.43;125.63;;;4.70;99.90;;;;;;5077954;28;20491;-65
2023/04/30 02:40:18;;;;;;;132.77;126.55;;;4.80;99.90;;;;;;5100098;28;20047;-66
2023/04/30 02:42:44;;;;;;;122.10;116.30;;;4.70;99.90;;;;;;5058182;28;20036;-66
2023/04/30 02:45:10;;;;;;;124.60;119.00;;;4.80;99.90;;;;;;5081587;27;20066;-66
2023/04/30 02:47:36;;;;;;;131.38;125.22;;;4.80;99.90;;;;;;5086284;28;20498;-65
2023/04/30 02:50:01;;;;;;;130.05;124.20;;;4.80;99.90;;;;;;5080914;28;20044;-65
2023/04/30 02:52:27;;;;;;;129.80;123.90;;;4.90;99.90;;;;;;5081800;28;20472;-65
2023/04/30 02:54:52;;;;;;;129.68;123.82;;;4.90;99.90;;;;;;5081801;28;20036;-65
2023/04/30 02:57:18;;;;;;;129.93;124.05;;;4.90;99.90;;;;;;5079353;28;20047;-65
2023/04/30 02:59:44;;;;;;;129.43;123.43;;;4.90;99.90;;;;;;5078781;28;20040;-65
2023/04/30 03:02:11;;;;;;;127.82;122.10;;;4.90;99.90;;;;;;5077710;28;20154;-65
2023/04/30 03:04:37;;;;;;;130.55;124.72;;;5.00;99.90;;;;;;5080845;28;20054;-65
2023/04/30 03:07:03;;;;;;;128.57;122.82;;;5.00;99.90;;;;;;5077673;28;20036;-66
2023/04/30 03:09:31;;;;;;;129.77;124.13;;;5.00;99.90;;;;;;5098586;28;20047;-65
2023/04/30 03:11:56;;;;;;;129.63;123.85;;;5.00;99.90;;;;;;5078319;28;20043;-66
2023/04/30 03:14:22;;;;;;;124.93;119.47;;;5.10;99.90;;;;;;5069312;28;20122;-66
2023/04/30 03:16:48;;;;;;;117.00;111.60;;;5.00;99.90;;;;;;5083805;27;20124;-66
2023/04/30 03:19:13;;;;;;;115.25;110.15;;;5.10;99.90;;;;;;5086185;28;20086;-66
2023/04/30 03:21:39;;;;;;;116.70;111.32;;;5.10;99.90;;;;;;5097269;28;20040;-65
2023/04/30 03:24:05;;;;;;;120.28;114.93;;;5.10;99.90;;;;;;5063859;28;20625;-66
2023/04/30 03:26:31;;;;;;;124.72;119.07;;;5.10;99.90;;;;;;5088065;28;20062;-66
2023/04/30 03:28:57;;;;;;;122.20;116.80;;;5.10;99.90;;;;;;5083231;28;20071;-65
2023/04/30 03:31:22;;;;;;;120.93;115.38;;;5.20;99.90;;;;;;5086594;28;20050;-66
2023/04/30 03:33:48;;;;;;;119.43;114.32;;;5.10;99.90;;;;;;5087152;28;20035;-65
2023/04/30 03:36:14;;;;;;;122.53;116.85;;;5.10;99.90;;;;;;5096388;28;20040;-65
2023/04/30 03:38:41;;;;;;;121.78;116.03;;;5.10;99.90;;;;;;5067491;28;20047;-65
2023/04/30 03:41:07;;;;;;;119.50;114.07;;;5.20;99.90;;;;;;5082351;28;20040;-65
2023/04/30 03:43:32;;;;;;;112.40;107.03;;;5.10;99.90;;;;;;5076331;28;20521;-65
2023/04/30 03:45:58;;;;;;;109.78;104.97;;;5.20;99.90;;;;;;5085168;28;20067;-66
2023/04/30 03:48:24;;;;;;;119.75;114.45;;;5.20;99.90;;;;;;5068475;28;20031;-65
2023/04/30 03:50:49;;;;;;;123.28;117.80;;;5.20;99.90;;;;;;5079690;28;20039;-65
2023/04/30 03:53:15;;;;;;;116.63;111.50;;;5.20;99.90;;;;;;5061097;28;20153;-65
2023/04/30 03:55:41;;;;;;;104.97;100.25;;;5.10;99.90;;;;;;5082950;28;20044;-65
2023/04/30 03:58:07;;;;;;;101.63;97.07;;;5.10;99.90;;;;;;5080379;28;20036;-65
2023/04/30 04:00:33;;;;;;;99.30;94.53;;;5.10;99.90;;;;;;5095020;28;20040;-65
2023/04/30 04:02:58;;;;;;;94.93;90.40;;;5.00;99.90;;;;;;5084103;28;20670;-65
2023/04/30 04:05:25;;;;;;;99.97;95.18;;;5.00;99.90;;;;;;5080476;28;20041;-65
2023/04/30 04:07:50;;;;;;;99.88;95.13;;;4.90;99.90;;;;;;5079730;28;20040;-65
2023/04/30 04:10:16;;;;;;;98.22;93.63;;;4.90;99.90;;;;;;5077507;27;20036;-66
2023/04/30 04:12:42;;;;;;;103.75;99.07;;;4.90;99.90;;;;;;5082760;28;20047;-66
2023/04/30 04:15:08;;;;;;;109.38;104.45;;;4.80;99.90;;;;;;5082383;28;20074;-66
2023/04/30 04:17:33;;;;;;;98.72;94.20;;;4.80;99.90;;;;;;5077357;28;20051;-65
2023/04/30 04:19:59;;;;;;;106.65;101.60;;;4.80;99.90;;;;;;5085792;28;20033;-65
2023/04/30 04:22:25;;;;;;;112.35;107.25;;;4.70;99.90;;;;;;5081532;28;20310;-65
2023/04/30 04:24:50;;;;;;;108.97;104.15;;;4.70;99.90;;;;;;5078281;28;20031;-66
2023/04/30 04:27:16;;;;;;;117.38;112.13;;;4.70;99.90;;;;;;5076987;28;20066;-65
2023/04/30 04:29:42;;;;;;;125.40;119.35;;;4.70;99.90;;;;;;5078772;28;20051;-65
2023/04/30 04:32:09;;;;;;;127.88;122.00;;;4.70;99.90;;;;;;5064777;28;20044;-65
2023/04/30 04:34:34;;;;;;;125.40;119.72;;;4.60;99.90;;;;;;5059761;28;20040;-65
2023/04/30 04:37:00;;;;;;;128.82;122.90;;;4.70;99.90;;;;;;5079212;28;20452;-65
2023/04/30 04:39:26;;;;;;;125.30;119.57;;;4.80;99.90;;;;;;5090046;28;20062;-65
2023/04/30 04:41:51;;;;;;;130.82;125.13;;;4.80;99.90;;;;;;5086159;28;20105;-65
2023/04/30 04:44:17;;;;;;;124.22;118.63;;;4.90;99.90;;;;;;5086390;28;20526;-66
2023/04/30 04:46:43;;;;;;;120.07;114.78;;;5.10;99.90;;;;;;5103754;28;20047;-65
2023/04/30 04:49:09;;;;;;;122.65;117.22;;;5.30;99.90;;;;;;5083588;28;20555;-65
2023/04/30 04:51:34;;;;;;;126.93;121.10;;;5.50;99.90;;;;;;5066105;28;20101;-66
2023/04/30 04:54:00;;;;;;;127.32;121.70;;;5.60;99.90;;;;;;5071632;28;20104;-66
2023/04/30 04:56:26;;;;;;;125.93;120.03;;;5.60;99.90;;;;;;5096155;28;20059;-65
2023/04/30 04:58:51;;;;;;;126.60;121.07;;;5.60;99.90;;;;;;5084359;28;20050;-66
2023/04/30 05:01:17;;;;;;;129.07;123.20;;;5.50;99.90;;;;;;5066622;28;20471;-65
2023/04/30 05:03:43;;;;;;;128.20;122.40;;;5.50;99.90;;;;;;5070272;27;20035;-65
2023/04/30 05:06:08;;;;;;;128.10;122.30;;;5.50;99.90;;;;;;5086648;28;20439;-66
2023/04/30 05:08:34;;;;;;;125.78;120.35;;;5.40;99.90;;;;;;5085572;28;20046;-65
2023/04/30 05:10:59;;;;;;;128.90;123.38;;;5.40;99.90;;;;;;5082393;28;20386;-66
2023/04/30 05:13:25;;;;;;;128.02;122.43;;;5.50;99.90;;;;;;5081395;28;20122;-66
2023/04/30 05:15:52;;;;;;;124.00;118.53;;;5.50;99.90;;;;;;5081016;28;20047;-65
2023/04/30 05:18:18;;;;;;;124.93;119.28;;;5.60;99.90;;;;;;5099281;27;20454;-66
2023/04/30 05:20:44;;;;;;;124.60;119.03;;;5.60;99.90;;;;;;5099478;27;20039;-66
2023/04/30 05:23:09;;;;;;;127.25;120.88;;;5.70;99.90;;;;;;5083739;27;20027;-65
2023/04/30 05:25:35;;;;;;;126.53;120.82;;;5.80;99.90;;;;;;5082584;28;20048;-65
2023/04/30 05:28:02;;;;;;;129.27;123.38;;;5.90;99.90;;;;;;5082297;27;20154;-66
2023/04/30 05:30:28;;;;;;;127.53;121.80;;;6.00;99.90;;;;;;5085551;28;20039;-65
2023/04/30 05:32:55;;;;;;;129.23;123.30;;;6.20;99.90;;;;;;5082509;28;20418;-65
2023/04/30 05:35:21;;;;;;;135.18;129.13;;;6.30;99.90;;;;;;5085586;28;20048;-66
2023/04/30 05:37:47;;;;;;;129.40;123.45;;;6.40;99.90;;;;;;5082872;28;20045;-66
2023/04/30 05:40:13;;;;;;;127.28;121.43;;;6.60;99.90;;;;;;5070365;28;20123;-66
2023/04/30 05:42:39;;;;;;;116.25;110.57;;;6.70;99.90;;;;;;5064780;28;21521;-66
2023/04/30 05:45:06;;;;;;;116.22;110.95;;;6.80;99.90;;;;;;5083398;28;20043;-66
2023/04/30 05:47:32;;;;;;;112.47;107.07;;;6.90;99.90;;;;;;5065014;28;20053;-66
2023/04/30 05:49:57;;;;;;;108.53;103.32;;;7.00;99.90;;;;;;5083484;27;20384;-66
2023/04/30 05:52:23;;;;;;;87.88;83.43;;;7.10;99.90;;;;;;5097556;27;20046;-66
2023/04/30 05:54:49;;;;;;;69.75;65.93;;;7.20;99.90;;;;;;5087663;28;20040;-66
2023/04/30 05:57:15;;;;;;;67.90;64.18;;;7.30;99.90;;;;;;5084934;28;20048;-65
2023/04/30 05:59:40;;;;;;;61.55;58.05;;;7.40;99.90;;;;;;5088110;28;20452;-66
2023/04/30 06:02:06;;;;;;;51.20;48.00;;;7.40;99.90;;;;;;5075410;28;20046;-65
2023/04/30 06:04:32;;;;;;;46.25;43.42;;;7.40;99.90;;;;;;5081397;28;20039;-66
2023/04/30 06:06:57;;;;;;;47.35;44.25;;;7.50;99.90;;;;;;5099577;27;20131;-66
2023/04/30 06:09:23;;;;;;;47.63;44.70;;;7.60;99.90;;;;;;5065933;28;20071;-66
2023/04/30 06:11:50;;;;;;;47.88;45.03;;;7.60;99.90;;;;;;5101198;28;20039;-66
2023/04/30 06:14:17;;;;;;;46.67;43.65;;;7.70;99.90;;;;;;5081748;27;20043;-66
2023/04/30 06:16:46;;;;;;;50.35;47.38;;;7.80;99.90;;;;;;5100872;28;20396;-66
2023/04/30 06:19:11;;;;;;;48.33;45.33;;;8.10;99.90;;;;;;5080607;28;20071;-66
2023/04/30 06:21:37;;;;;;;65.43;61.92;;;8.30;99.90;;;;;;5082346;28;20075;-66
2023/04/30 06:24:03;;;;;;;72.95;69.15;;;8.60;99.90;;;;;;5099174;28;20043;-66
2023/04/30 06:26:29;;;;;;;77.47;73.32;;;8.70;99.90;;;;;;5079375;28;20047;-66
2023/04/30 06:28:55;;;;;;;82.82;78.85;;;8.80;99.90;;;;;;5086593;28;20477;-66
2023/04/30 06:31:21;;;;;;;70.72;67.28;;;8.90;99.90;;;;;;5084952;28;20441;-66
2023/04/30 06:33:47;;;;;;;74.38;70.55;;;8.90;99.90;;;;;;5079099;28;20043;-66
2023/04/30 06:36:13;;;;;;;70.93;67.45;;;9.10;99.90;;;;;;5080973;28;20039;-66
2023/04/30 06:38:40;;;;;;;70.00;66.40;;;9.20;99.90;;;;;;5085688;28;20498;-66
2023/04/30 06:41:05;;;;;;;67.97;64.28;;;9.40;99.90;;;;;;5062618;28;20055;-66
2023/04/30 06:43:31;;;;;;;58.50;55.40;;;9.70;99.90;;;;;;5064964;28;20031;-66
2023/04/30 06:45:56;;;;;;;56.78;53.78;;;10.00;99.90;;;;;;5089804;28;20085;-66
2023/04/30 06:48:22;;;;;;;51.78;48.50;;;10.90;99.90;;;;;;5080837;28;20043;-66
2023/04/30 06:50:48;;;;;;;71.65;67.55;;;11.80;99.90;;;;;;5082247;28;20035;-66
2023/04/30 06:53:14;;;;;;;81.22;77.32;;;12.60;99.90;;;;;;5075491;27;20034;-66
2023/04/30 06:55:45;;;;;;;78.60;74.80;;;13.60;99.90;;;;;;5065048;28;20036;-66
2023/04/30 06:58:11;;;;;;;64.13;60.53;;;14.30;99.90;;;;;;5062751;28;20046;-67
2023/04/30 07:00:37;;;;;;;43.47;40.78;;;14.00;99.90;;;;;;5080239;28;20421;-66
2023/04/30 07:03:03;;;;;;;37.45;34.70;;;13.40;99.90;;;;;;5063663;28;20038;-66
2023/04/30 07:05:29;;;;;;;33.28;31.05;;;12.80;99.90;;;;;;5082706;28;20031;-66
2023/04/30 07:07:56;;;;;;;28.23;25.90;;;12.40;99.90;;;;;;5080897;28;20506;-66
2023/04/30 07:10:21;;;;;;;28.48;26.45;;;12.00;99.90;;;;;;5082829;28;20117;-66
2023/04/30 07:12:47;;;;;;;35.95;33.63;;;11.80;99.90;;;;;;5064536;28;20059;-66
2023/04/30 07:15:12;;;;;;;26.70;24.92;;;11.60;99.90;;;;;;5080364;28;20050;-66
2023/04/30 07:17:40;;;;;;;28.83;26.80;;;11.40;99.90;;;;;;5079301;28;20048;-66
2023/04/30 07:20:07;;;;;;;26.58;24.48;;;11.30;99.90;;;;;;5077678;27;20047;-66
2023/04/30 07:22:33;;;;;;;28.05;25.90;;;11.30;99.90;;;;;;5065072;28;20379;-67
2023/04/30 07:24:59;;;;;;;32.05;29.98;;;11.20;99.90;;;;;;5062208;28;20036;-66
2023/04/30 07:27:25;;;;;;;31.42;29.52;;;11.20;99.90;;;;;;5081250;28;20036;-66
2023/04/30 07:29:51;;;;;;;28.20;26.15;;;11.20;99.90;;;;;;5082779;28;20044;-66
2023/04/30 07:32:17;;;;;;;60.10;56.83;;;11.20;99.90;;;;;;5098250;28;20093;-66
2023/04/30 07:34:42;;;;;;;40.15;37.45;;;11.20;99.90;;;;;;5074686;28;20070;-66
2023/04/30 07:37:08;;;;;;;46.63;43.95;;;11.30;99.90;;;;;;5080073;28;20067;-66
2023/04/30 07:39:35;;;;;;;32.50;30.23;;;11.30;99.90;;;;;;5076568;28;20047;-66
2023/04/30 07:42:02;;;;;;;29.83;27.73;;;11.40;99.90;;;;;;5098304;27;20035;-66
2023/04/30 07:44:28;;;;;;;28.15;25.88;;;11.50;99.90;;;;;;5068676;28;21447;-66
2023/04/30 07:46:54;;;;;;;28.70;26.52;;;11.50;99.90;;;;;;5077466;28;20032;-66
2023/04/30 07:49:20;;;;;;;29.48;27.45;;;11.40;99.90;;;;;;5080361;28;20186;-66
2023/04/30 07:51:46;;;;;;;60.13;56.72;;;11.50;99.90;;;;;;5077524;28;20040;-67
2023/04/30 07:54:12;;;;;;;49.95;47.00;;;11.60;99.90;;;;;;5081253;28;20035;-67
2023/04/30 07:56:38;;;;;;;51.53;48.70;;;11.80;99.90;;;;;;5069797;28;20100;-66
2023/04/30 07:59:04;;;;;;;24.95;23.38;;;12.00;99.90;;;;;;5080064;28;20043;-67
2023/04/30 08:01:29;;;;;;;58.10;54.92;;;12.10;99.90;;;;;;5083332;28;20575;-66
2023/04/30 08:03:55;;;;;;;25.90;24.35;;;12.10;99.90;;;;;;5077849;28;20068;-66
2023/04/30 08:06:21;;;;;;;48.50;45.42;;;12.30;99.90;;;;;;5081653;28;20550;-66
2023/04/30 08:08:47;;;;;;;25.80;23.83;;;12.40;99.90;;;;;;5077338;28;20088;-66
2023/04/30 08:11:14;;;;;;;27.98;26.15;;;12.60;99.90;;;;;;5078718;28;20441;-66
2023/04/30 08:13:40;;;;;;;34.85;32.47;;;12.50;99.90;;;;;;5082624;28;20075;-66
2023/04/30 08:16:06;;;;;;;25.17;23.17;;;12.60;99.90;;;;;;5080471;28;20085;-66
2023/04/30 08:18:32;;;;;;;26.83;24.88;;;12.60;99.90;;;;;;5096916;28;20433;-67
2023/04/30 08:20:59;;;;;;;34.08;31.90;;;12.40;99.90;;;;;;5083891;28;20425;-66
2023/04/30 08:23:25;;;;;;;29.27;27.30;;;12.40;99.90;;;;;;5079644;28;20299;-67
2023/04/30 08:25:51;;;;;;;42.38;40.00;;;12.30;99.90;;;;;;5081703;28;20556;-66
2023/04/30 08:28:17;;;;;;;29.67;27.73;;;12.30;99.90;;;;;;5078957;28;20038;-66
2023/04/30 08:30:43;;;;;;;28.67;26.13;;;12.30;99.90;;;;;;5059657;28;20050;-66
2023/04/30 08:33:08;;;;;;;38.63;36.55;;;12.30;99.90;;;;;;5100084;28;20471;-66
2023/04/30 08:35:34;;;;;;;26.10;24.35;;;12.20;99.90;;;;;;5101967;28;20031;-66
2023/04/30 08:38:00;;;;;;;59.20;55.90;;;12.20;99.90;;;;;;5105353;28;20046;-66
2023/04/30 08:40:26;;;;;;;32.40;30.27;;;12.50;99.90;;;;;;5102634;28;20067;-67
2023/04/30 08:43:13;;;;;;;28.67;26.77;;;13.10;99.90;;;;;;5086039;28;20039;-67
2023/04/30 08:45:40;;;;;;;58.42;55.38;;;13.70;99.90;;;;;;5065477;28;20104;-67
2023/04/30 08:48:12;;;;;;;28.60;26.52;;;13.80;99.90;;;;;;5068739;28;20043;-67
2023/04/30 08:50:38;;;;;;;38.90;36.90;;;13.80;99.90;;;;;;5089038;28;20039;-66
2023/04/30 08:53:06;;;;;;;37.25;35.13;;;13.60;99.90;;;;;;5081193;28;20403;-66
2023/04/30 08:55:33;;;;;;;45.72;43.30;;;13.50;99.90;;;;;;5082587;28;20110;-66
2023/04/30 08:57:58;;;;;;;49.38;46.58;;;13.50;99.90;;;;;;5083128;28;20052;-66
2023/04/30 09:00:25;;;;;;;55.70;52.78;;;13.30;99.90;;;;;;5075748;28;20039;-67
2023/04/30 09:02:51;;;;;;;45.22;42.80;;;13.10;99.90;;;;;;5069823;28;20944;-67
2023/04/30 09:05:17;;;;;;;58.60;55.47;;;12.90;99.90;;;;;;5069030;28;20052;-66
2023/04/30 09:07:45;;;;;;;40.78;38.03;;;12.90;99.90;;;;;;5081266;28;20032;-66
2023/04/30 09:10:19;;;;;;;45.30;42.70;;;13.00;99.90;;;;;;5063181;28;20051;-67
2023/04/30 09:13:11;;;;;;;41.95;39.35;;;13.30;99.90;;;;;;5095192;28;20039;-66
2023/04/30 09:15:40;;;;;;;42.35;39.92;;;13.70;99.90;;;;;;5075724;28;20162;-67
2023/04/30 09:18:17;;;;;;;41.75;39.25;;;13.90;99.90;;;;;;5064575;28;20052;-67
2023/04/30 09:21:01;;;;;;;26.20;24.45;;;14.10;99.90;;;;;;5073893;28;20441;-67
2023/04/30 09:23:28;;;;;;;31.95;29.80;;;14.30;99.90;;;;;;5061373;28;20121;-68
2023/04/30 09:25:54;;;;;;;36.40;34.28;;;14.40;99.90;;;;;;5103605;27;20507;-66
2023/04/30 09:28:24;;;;;;;22.70;21.20;;;14.40;99.90;;;;;;5078928;28;20096;-67
2023/04/30 09:30:50;;;;;;;51.58;49.05;;;14.40;99.90;;;;;;5062125;28;20043;-67
2023/04/30 09:33:16;;;;;;;25.42;23.63;;;14.30;99.90;;;;;;5098837;28;20122;-66
2023/04/30 09:35:42;;;;;;;34.85;32.80;;;14.30;99.90;;;;;;5060707;28;20534;-67
2023/04/30 09:38:33;;;;;;;19.02;17.40;;;14.40;99.90;;;;;;5085570;27;20501;-66
2023/04/30 09:41:00;;;;;;;55.13;52.33;;;14.40;99.90;;;;;;5105543;28;20040;-67
2023/04/30 09:43:26;;;;;;;56.25;53.30;;;14.40;99.90;;;;;;5110614;28;20731;-67
2023/04/30 09:45:52;;;;;;;21.58;19.90;;;14.70;99.90;;;;;;5074719;28;20044;-67
2023/04/30 09:48:21;;;;;;;28.95;27.23;;;15.10;99.90;;;;;;5084386;28;20035;-67
2023/04/30 09:50:48;;;;;;;22.75;21.05;;;15.60;99.90;;;;;;5088484;28;20036;-66
2023/04/30 09:53:16;;;;;;;21.42;19.70;;;15.50;99.90;;;;;;5075532;28;20051;-67
2023/04/30 09:55:51;;;;;;;30.98;28.98;;;15.50;99.90;;;;;;5085643;28;20119;-67
2023/04/30 09:58:18;;;;;;;21.88;20.38;;;15.50;99.90;;;;;;5088239;28;20062;-67
2023/04/30 10:00:47;;;;;;;19.70;18.17;;;15.40;99.90;;;;;;5087615;28;20040;-66
2023/04/30 10:03:13;;;;;;;21.38;19.58;;;15.40;99.90;;;;;;5103226;28;20458;-67
2023/04/30 10:05:47;;;;;;;21.85;20.08;;;15.60;99.90;;;;;;5087314;28;20040;-67
2023/04/30 10:08:35;;;;;;;27.48;25.58;;;15.80;99.90;;;;;;5094768;28;20036;-67
2023/04/30 10:11:06;;;;;;;24.55;22.65;;;15.80;99.90;;;;;;5083948;28;20462;-67
2023/04/30 10:13:45;;;;;;;26.20;24.50;;;15.80;99.90;;;;;;5081013;28;20046;-67
2023/04/30 10:16:22;;;;;;;21.77;20.30;;;16.00;99.90;;;;;;5091351;28;20044;-66
2023/04/30 10:18:50;;;;;;;21.63;20.13;;;16.40;99.90;;;;;;5087805;28;20039;-67
2023/04/30 10:21:18;;;;;;;29.40;27.60;;;16.50;99.90;;;;;;5107220;28;20047;-67
2023/04/30 10:23:43;;;;;;;28.50;26.83;;;16.50;99.90;;;;;;5056855;28;20043;-66
2023/04/30 10:26:15;;;;;;;30.52;28.23;;;16.60;99.90;;;;;;5064681;28;20059;-66
2023/04/30 10:28:41;;;;;;;31.35;29.45;;;16.90;99.90;;;;;;5072671;28;20044;-67
2023/04/30 10:31:09;;;;;;;20.17;18.20;;;17.20;99.90;;;;;;5083086;28;20038;-67
2023/04/30 10:33:48;;;;;;;27.05;25.23;;;17.30;99.90;;;;;;5108059;28;20647;-66
2023/04/30 10:36:22;;;;;;;22.52;21.00;;;17.60;98.50;;;;;;5089505;28;20051;-66
2023/04/30 10:38:48;;;;;;;17.13;15.57;;;17.40;96.90;;;;;;5064120;28;20055;-67
2023/04/30 10:41:14;;;;;;;39.22;36.83;;;17.10;95.80;;;;;;5084104;28;20036;-67
2023/04/30 10:43:40;;;;;;;33.05;30.90;;;16.80;98.10;;;;;;5085365;27;20043;-67
2023/04/30 10:46:07;;;;;;;34.95;32.80;;;16.80;99.60;;;;;;5097014;28;20812;-67
2023/04/30 10:48:34;;;;;;;36.28;34.33;;;16.90;99.90;;;;;;5082922;28;20486;-66
2023/04/30 10:51:00;;;;;;;34.42;32.47;;;17.00;99.50;;;;;;5087954;27;20050;-67
2023/04/30 10:53:30;;;;;;;31.85;29.92;;;17.30;99.40;;;;;;5105588;27;20040;-67
2023/04/30 10:56:07;;;;;;;24.75;22.95;;;17.30;98.10;;;;;;5094908;28;20062;-67
2023/04/30 10:58:38;;;;;;;34.25;32.22;;;17.40;97.30;;;;;;5084453;28;20044;-66
2023/04/30 11:01:16;;;;;;;34.10;31.92;;;17.40;98.80;;;;;;5083240;28;20050;-67
2023/04/30 11:04:09;;;;;;;35.60;33.70;;;17.50;97.90;;;;;;5090186;28;20483;-66
2023/04/30 11:06:52;;;;;;;31.20;29.30;;;17.60;99.90;;;;;;5089678;28;20543;-66
2023/04/30 11:09:45;;;;;;;30.57;28.67;;;17.80;98.20;;;;;;5079637;28;20088;-67
2023/04/30 11:12:13;;;;;;;29.75;27.75;;;17.90;98.10;;;;;;5084331;28;20051;-66
2023/04/30 11:14:44;;;;;;;32.50;30.50;;;18.20;98.60;;;;;;5079907;28;20040;-66
2023/04/30 11:17:11;;;;;;;31.20;29.25;;;18.30;97.70;;;;;;5085769;28;20039;-66
2023/04/30 11:19:48;;;;;;;30.95;29.17;;;18.30;95.70;;;;;;5083179;28;20088;-67
2023/04/30 11:22:24;;;;;;;27.88;26.30;;;18.10;95.70;;;;;;5105612;28;20542;-66
2023/04/30 11:25:17;;;;;;;31.67;29.75;;;17.80;95.20;;;;;;5087152;28;20067;-66
2023/04/30 11:27:44;;;;;;;36.08;33.92;;;17.20;94.70;;;;;;5063263;28;20536;-67
2023/04/30 11:30:15;;;;;;;28.88;27.08;;;17.20;96.50;;;;;;5070948;28;20051;-66
2023/04/30 11:32:46;;;;;;;23.83;22.30;;;17.40;97.30;;;;;;5086155;28;20528;-66
2023/04/30 11:35:12;;;;;;;31.95;29.95;;;17.50;96.30;;;;;;5080037;28;20122;-66
2023/04/30 11:37:44;;;;;;;37.28;34.83;;;17.50;96.40;;;;;;5085336;28;20496;-66
2023/04/30 11:40:11;;;;;;;18.17;16.90;;;17.60;98.20;;;;;;5082296;28;20052;-66
2023/04/30 11:42:39;;;;;;;34.85;32.83;;;17.80;97.50;;;;;;5059542;28;20033;-67
2023/04/30 11:45:09;;;;;;;28.83;27.30;;;18.00;98.60;;;;;;5085626;28;20121;-67
2023/04/30 11:47:44;;;;;;;21.65;20.20;;;18.30;98.40;;;;;;5086022;28;20048;-66
2023/04/30 11:50:15;;;;;;;13.30;12.40;;;18.40;96.20;;;;;;5075604;28;20048;-66
2023/04/30 11:52:42;;;;;;;29.15;27.52;;;18.20;92.80;;;;;;5084773;28;20051;-67
2023/04/30 11:55:16;;;;;;;18.30;17.05;;;17.90;95.50;;;;;;5067772;28;20082;-66
2023/04/30 11:57:43;;;;;;;20.60;19.23;;;17.80;95.00;;;;;;5084833;28;20044;-66
2023/04/30 12:00:12;;;;;;;40.72;38.65;;;17.70;95.40;;;;;;5080903;28;20518;-66
2023/04/30 12:02:38;;;;;;;12.57;11.68;;;17.80;96.70;;;;;;5077889;28;20044;-66
2023/04/30 12:05:11;;;;;;;24.60;23.10;;;18.00;94.30;;;;;;5078084;28;20476;-67
2023/04/30 12:07:36;;;;;;;43.53;41.25;;;17.80;94.50;;;;;;5073197;28;20159;-66
2023/04/30 12:10:02;;;;;;;20.73;19.42;;;17.80;96.40;;;;;;5079171;28;20142;-66
2023/04/30 12:12:31;;;;;;;20.85;19.33;;;18.00;96.20;;;;;;5076151;28;20067;-66
2023/04/30 12:14:57;;;;;;;16.55;15.35;;;18.20;96.60;;;;;;5068427;28;20114;-66
2023/04/30 12:17:33;;;;;;;12.38;11.27;;;18.50;96.40;;;;;;5069132;28;20123;-66
2023/04/30 12:19:59;;;;;;;12.25;10.88;;;18.50;94.30;;;;;;5082831;28;20059;-67
2023/04/30 12:22:25;;;;;;;13.43;12.32;;;18.40;93.60;;;;;;5074514;28;20046;-67
2023/04/30 12:24:51;;;;;;;23.00;21.60;;;18.40;95.10;;;;;;5074072;28;20127;-67
2023/04/30 12:27:17;;;;;;;16.27;15.18;;;18.40;95.20;;;;;;5068727;28;20058;-66